sensor_id;sensor_type;location;lat;lon;timestamp;pressure;altitude;pressure_sealevel;temperature;humidity
39769;BME280;38939;47.824;14.642;2023-04-26T00:00:28;96627.94;;;8.34;85.81
39769;BME280;38939;47.824;14.642;2023-04-26T00:01:30;96628.53;;;8.29;85.80
39769;BME280;38939;47.824;14.642;2023-04-26T00:02:32;96633.13;;;8.27;86.51
39769;BME280;38939;47.824;14.642;2023-04-26T00:03:35;96627.34;;;8.32;86.25
39769;BME280;38939;47.824;14.642;2023-04-26T00:04:37;96633.38;;;8.32;86.56
39769;BME280;38939;47.824;14.642;2023-04-26T00:05:40;96622.56;;;8.35;85.98
39769;BME280;38939;47.824;14.642;2023-04-26T00:06:42;96625.34;;;8.34;86.46
39769;BME280;38939;47.824;14.642;2023-04-26T00:07:44;96629.56;;;8.35;85.49
39769;BME280;38939;47.824;14.642;2023-04-26T00:08:46;96624.97;;;8.37;85.92
39769;BME280;38939;47.824;14.642;2023-04-26T00:09:48;96625.78;;;8.37;86.01
39769;BME280;38939;47.824;14.642;2023-04-26T00:10:50;96623.34;;;8.36;86.50
39769;BME280;38939;47.824;14.642;2023-04-26T00:11:52;96631.38;;;8.34;86.52
39769;BME280;38939;47.824;14.642;2023-04-26T00:12:54;96636.16;;;8.37;86.66
39769;BME280;38939;47.824;14.642;2023-04-26T00:13:59;96627.00;;;8.41;86.38
39769;BME280;38939;47.824;14.642;2023-04-26T00:15:02;96630.03;;;8.45;85.97
39769;BME280;38939;47.824;14.642;2023-04-26T00:16:04;96631.00;;;8.44;85.53
39769;BME280;38939;47.824;14.642;2023-04-26T00:17:06;96634.03;;;8.41;85.84
39769;BME280;38939;47.824;14.642;2023-04-26T00:18:08;96636.63;;;8.41;85.80
39769;BME280;38939;47.824;14.642;2023-04-26T00:19:10;96629.78;;;8.40;86.00
39769;BME280;38939;47.824;14.642;2023-04-26T00:20:13;96625.59;;;8.39;85.39
39769;BME280;38939;47.824;14.642;2023-04-26T00:21:15;96620.75;;;8.36;85.24
39769;BME280;38939;47.824;14.642;2023-04-26T00:22:17;96634.59;;;8.36;85.44
39769;BME280;38939;47.824;14.642;2023-04-26T00:23:19;96635.97;;;8.39;85.16
39769;BME280;38939;47.824;14.642;2023-04-26T00:24:21;96630.59;;;8.40;85.29
39769;BME280;38939;47.824;14.642;2023-04-26T00:25:23;96633.38;;;8.32;85.79
39769;BME280;38939;47.824;14.642;2023-04-26T00:26:25;96631.31;;;8.28;85.90
39769;BME280;38939;47.824;14.642;2023-04-26T00:27:26;96636.94;;;8.31;86.00
39769;BME280;38939;47.824;14.642;2023-04-26T00:28:28;96636.16;;;8.31;86.18
39769;BME280;38939;47.824;14.642;2023-04-26T00:29:30;96638.16;;;8.29;86.92
39769;BME280;38939;47.824;14.642;2023-04-26T00:30:33;96632.75;;;8.30;87.33
39769;BME280;38939;47.824;14.642;2023-04-26T00:31:38;96641.72;;;8.28;86.98
39769;BME280;38939;47.824;14.642;2023-04-26T00:32:40;96637.31;;;8.21;86.69
39769;BME280;38939;47.824;14.642;2023-04-26T00:33:42;96636.69;;;8.19;87.70
39769;BME280;38939;47.824;14.642;2023-04-26T00:34:44;96633.66;;;8.16;87.89
39769;BME280;38939;47.824;14.642;2023-04-26T00:35:46;96636.09;;;8.17;87.08
39769;BME280;38939;47.824;14.642;2023-04-26T00:36:48;96637.91;;;8.24;87.11
39769;BME280;38939;47.824;14.642;2023-04-26T00:37:50;96630.53;;;8.27;87.04
39769;BME280;38939;47.824;14.642;2023-04-26T00:38:52;96634.94;;;8.27;86.98
39769;BME280;38939;47.824;14.642;2023-04-26T00:39:55;96635.34;;;8.30;86.91
39769;BME280;38939;47.824;14.642;2023-04-26T00:40:57;96636.34;;;8.29;86.90
39769;BME280;38939;47.824;14.642;2023-04-26T00:41:59;96641.94;;;8.26;86.78
39769;BME280;38939;47.824;14.642;2023-04-26T00:43:02;96634.94;;;8.27;86.50
39769;BME280;38939;47.824;14.642;2023-04-26T00:44:04;96639.72;;;8.30;86.74
39769;BME280;38939;47.824;14.642;2023-04-26T00:45:07;96640.34;;;8.32;86.55
39769;BME280;38939;47.824;14.642;2023-04-26T00:46:09;96640.16;;;8.33;87.11
39769;BME280;38939;47.824;14.642;2023-04-26T00:47:11;96635.91;;;8.26;87.07
39769;BME280;38939;47.824;14.642;2023-04-26T00:48:13;96635.91;;;8.26;86.82
39769;BME280;38939;47.824;14.642;2023-04-26T00:49:17;96641.53;;;8.29;86.57
39769;BME280;38939;47.824;14.642;2023-04-26T00:50:19;96645.34;;;8.33;86.35
39769;BME280;38939;47.824;14.642;2023-04-26T00:51:21;96639.97;;;8.35;86.25
39769;BME280;38939;47.824;14.642;2023-04-26T00:52:23;96635.16;;;8.32;86.40
39769;BME280;38939;47.824;14.642;2023-04-26T00:53:26;96638.94;;;8.29;86.39
39769;BME280;38939;47.824;14.642;2023-04-26T00:54:28;96640.13;;;8.27;86.50
39769;BME280;38939;47.824;14.642;2023-04-26T00:55:30;96639.13;;;8.28;86.34
39769;BME280;38939;47.824;14.642;2023-04-26T00:56:32;96642.94;;;8.32;86.12
39769;BME280;38939;47.824;14.642;2023-04-26T00:57:34;96634.16;;;8.33;85.55
39769;BME280;38939;47.824;14.642;2023-04-26T00:58:36;96646.75;;;8.29;85.74
39769;BME280;38939;47.824;14.642;2023-04-26T00:59:38;96645.53;;;8.32;85.65
39769;BME280;38939;47.824;14.642;2023-04-26T01:00:40;96640.16;;;8.33;85.17
39769;BME280;38939;47.824;14.642;2023-04-26T01:01:42;96646.16;;;8.34;85.94
39769;BME280;38939;47.824;14.642;2023-04-26T01:02:44;96637.38;;;8.35;86.31
39769;BME280;38939;47.824;14.642;2023-04-26T01:03:46;96631.38;;;8.34;86.01
39769;BME280;38939;47.824;14.642;2023-04-26T01:04:49;96635.38;;;8.37;85.72
39769;BME280;38939;47.824;14.642;2023-04-26T01:05:52;96635.38;;;8.37;86.03
39769;BME280;38939;47.824;14.642;2023-04-26T01:06:54;96640.56;;;8.37;86.25
39769;BME280;38939;47.824;14.642;2023-04-26T01:07:56;96632.78;;;8.37;85.87
39769;BME280;38939;47.824;14.642;2023-04-26T01:09:03;96638.97;;;8.36;86.42
39769;BME280;38939;47.824;14.642;2023-04-26T01:10:11;96635.38;;;8.37;86.00
39769;BME280;38939;47.824;14.642;2023-04-26T01:11:13;96624.56;;;8.40;85.42
39769;BME280;38939;47.824;14.642;2023-04-26T01:12:15;96628.81;;;8.41;86.00
39769;BME280;38939;47.824;14.642;2023-04-26T01:13:17;96622.97;;;8.39;85.55
39769;BME280;38939;47.824;14.642;2023-04-26T01:14:19;96627.75;;;8.29;86.03
39769;BME280;38939;47.824;14.642;2023-04-26T01:15:22;96635.31;;;8.24;85.72
39769;BME280;38939;47.824;14.642;2023-04-26T01:16:25;96627.72;;;8.22;85.57
39769;BME280;38939;47.824;14.642;2023-04-26T01:17:28;96623.50;;;8.21;85.00
39769;BME280;38939;47.824;14.642;2023-04-26T01:18:31;96632.72;;;8.24;85.33
39769;BME280;38939;47.824;14.642;2023-04-26T01:19:32;96635.72;;;8.20;84.70
39769;BME280;38939;47.824;14.642;2023-04-26T01:20:38;96630.69;;;8.19;84.56
39769;BME280;38939;47.824;14.642;2023-04-26T01:21:40;96624.50;;;8.20;85.24
39769;BME280;38939;47.824;14.642;2023-04-26T01:22:42;96627.31;;;8.18;85.93
39769;BME280;38939;47.824;14.642;2023-04-26T01:23:44;96633.47;;;8.17;86.42
39769;BME280;38939;47.824;14.642;2023-04-26T01:24:47;96628.53;;;8.23;86.19
39769;BME280;38939;47.824;14.642;2023-04-26T01:25:51;96633.31;;;8.26;86.18
39769;BME280;38939;47.824;14.642;2023-04-26T01:26:54;96626.53;;;8.25;84.93
39769;BME280;38939;47.824;14.642;2023-04-26T01:27:56;96628.94;;;8.26;84.94
39769;BME280;38939;47.824;14.642;2023-04-26T01:28:58;96624.91;;;8.24;84.25
39769;BME280;38939;47.824;14.642;2023-04-26T01:30:00;96630.50;;;8.20;83.51
39769;BME280;38939;47.824;14.642;2023-04-26T01:31:02;96632.50;;;8.18;84.09
39769;BME280;38939;47.824;14.642;2023-04-26T01:32:04;96627.88;;;8.14;84.75
39769;BME280;38939;47.824;14.642;2023-04-26T01:33:06;96626.88;;;8.15;85.02
39769;BME280;38939;47.824;14.642;2023-04-26T01:34:08;96625.50;;;8.19;83.94
39769;BME280;38939;47.824;14.642;2023-04-26T01:35:10;96631.91;;;8.23;84.01
39769;BME280;38939;47.824;14.642;2023-04-26T01:36:12;96630.72;;;8.26;83.54
39769;BME280;38939;47.824;14.642;2023-04-26T01:37:13;96628.94;;;8.26;83.90
39769;BME280;38939;47.824;14.642;2023-04-26T01:38:15;96631.31;;;8.28;84.23
39769;BME280;38939;47.824;14.642;2023-04-26T01:39:18;96628.34;;;8.31;83.53
39769;BME280;38939;47.824;14.642;2023-04-26T01:40:20;96630.56;;;8.34;83.21
39769;BME280;38939;47.824;14.642;2023-04-26T01:41:22;96631.38;;;8.34;83.53
39769;BME280;38939;47.824;14.642;2023-04-26T01:42:25;96625.97;;;8.36;83.78
39769;BME280;38939;47.824;14.642;2023-04-26T01:43:26;96632.53;;;8.32;84.14
39769;BME280;38939;47.824;14.642;2023-04-26T01:44:28;96633.16;;;8.34;83.33
39769;BME280;38939;47.824;14.642;2023-04-26T01:45:31;96633.75;;;8.36;83.29
39769;BME280;38939;47.824;14.642;2023-04-26T01:46:33;96626.56;;;8.38;84.07
39769;BME280;38939;47.824;14.642;2023-04-26T01:47:35;96637.56;;;8.33;84.02
39769;BME280;38939;47.824;14.642;2023-04-26T01:48:37;96636.56;;;8.34;84.41
39769;BME280;38939;47.824;14.642;2023-04-26T01:49:39;96638.97;;;8.36;84.02
39769;BME280;38939;47.824;14.642;2023-04-26T01:50:42;96636.97;;;8.38;83.63
39769;BME280;38939;47.824;14.642;2023-04-26T01:51:43;96641.81;;;8.41;83.26
39769;BME280;38939;47.824;14.642;2023-04-26T01:52:45;96643.00;;;8.38;83.09
39769;BME280;38939;47.824;14.642;2023-04-26T01:53:47;96629.78;;;8.40;83.02
39769;BME280;38939;47.824;14.642;2023-04-26T01:54:49;96638.22;;;8.42;83.21
39769;BME280;38939;47.824;14.642;2023-04-26T01:55:51;96634.03;;;8.41;83.15
39769;BME280;38939;47.824;14.642;2023-04-26T01:56:53;96635.75;;;8.34;83.38
39769;BME280;38939;47.824;14.642;2023-04-26T01:57:55;96641.56;;;8.36;83.14
39769;BME280;38939;47.824;14.642;2023-04-26T01:58:57;96638.97;;;8.36;83.26
39769;BME280;38939;47.824;14.642;2023-04-26T01:59:59;96639.53;;;8.31;83.02
39769;BME280;38939;47.824;14.642;2023-04-26T02:01:07;96643.75;;;8.32;83.25
39769;BME280;38939;47.824;14.642;2023-04-26T02:02:09;96648.75;;;8.34;82.73
39769;BME280;38939;47.824;14.642;2023-04-26T02:03:12;96652.34;;;8.33;82.27
39769;BME280;38939;47.824;14.642;2023-04-26T02:04:14;96652.16;;;8.34;82.51
39769;BME280;38939;47.824;14.642;2023-04-26T02:05:16;96644.16;;;8.36;82.60
39769;BME280;38939;47.824;14.642;2023-04-26T02:06:18;96650.19;;;8.36;82.90
39769;BME280;38939;47.824;14.642;2023-04-26T02:07:19;96644.56;;;8.33;83.34
39769;BME280;38939;47.824;14.642;2023-04-26T02:08:21;96645.53;;;8.32;83.31
39769;BME280;38939;47.824;14.642;2023-04-26T02:09:23;96648.13;;;8.32;83.46
39769;BME280;38939;47.824;14.642;2023-04-26T02:10:25;96653.34;;;8.32;83.36
39769;BME280;38939;47.824;14.642;2023-04-26T02:11:27;96639.53;;;8.31;83.62
39769;BME280;38939;47.824;14.642;2023-04-26T02:12:29;96642.16;;;8.31;83.36
39769;BME280;38939;47.824;14.642;2023-04-26T02:13:31;96642.56;;;8.35;84.00
39769;BME280;38939;47.824;14.642;2023-04-26T02:14:33;96650.97;;;8.37;83.28
39769;BME280;38939;47.824;14.642;2023-04-26T02:15:35;96647.19;;;8.39;82.81
39769;BME280;38939;47.824;14.642;2023-04-26T02:16:40;96645.16;;;8.35;83.10
39769;BME280;38939;47.824;14.642;2023-04-26T02:17:42;96644.91;;;8.23;82.37
39769;BME280;38939;47.824;14.642;2023-04-26T02:18:44;96649.06;;;8.17;83.26
39769;BME280;38939;47.824;14.642;2023-04-26T02:19:46;96643.66;;;8.12;83.09
39769;BME280;38939;47.824;14.642;2023-04-26T02:20:48;96646.44;;;8.04;83.71
39769;BME280;38939;47.824;14.642;2023-04-26T02:21:54;96646.50;;;7.82;83.86
39769;BME280;38939;47.824;14.642;2023-04-26T02:22:57;96647.84;;;7.72;84.46
39769;BME280;38939;47.824;14.642;2023-04-26T02:24:00;96645.78;;;7.67;85.82
39769;BME280;38939;47.824;14.642;2023-04-26T02:25:01;96647.41;;;7.68;85.83
39769;BME280;38939;47.824;14.642;2023-04-26T02:26:04;96640.22;;;7.70;86.18
39769;BME280;38939;47.824;14.642;2023-04-26T02:27:05;96644.41;;;7.71;85.15
39769;BME280;38939;47.824;14.642;2023-04-26T02:28:08;96647.41;;;7.68;85.17
39769;BME280;38939;47.824;14.642;2023-04-26T02:29:10;96654.19;;;7.69;84.29
39769;BME280;38939;47.824;14.642;2023-04-26T02:30:12;96650.03;;;7.75;84.81
39769;BME280;38939;47.824;14.642;2023-04-26T02:31:14;96653.50;;;7.82;84.64
39769;BME280;38939;47.824;14.642;2023-04-26T02:32:15;96648.69;;;7.86;84.59
39769;BME280;38939;47.824;14.642;2023-04-26T02:33:17;96644.16;;;7.88;84.07
39769;BME280;38939;47.824;14.642;2023-04-26T02:34:19;96640.72;;;7.87;83.47
39769;BME280;38939;47.824;14.642;2023-04-26T02:35:21;96641.31;;;7.82;84.02
39769;BME280;38939;47.824;14.642;2023-04-26T02:36:24;96646.22;;;7.71;84.69
39769;BME280;38939;47.824;14.642;2023-04-26T02:37:26;96650.38;;;7.65;84.37
39769;BME280;38939;47.824;14.642;2023-04-26T02:38:28;96655.38;;;7.67;85.12
39769;BME280;38939;47.824;14.642;2023-04-26T02:39:30;96644.94;;;7.60;84.94
39769;BME280;38939;47.824;14.642;2023-04-26T02:40:32;96644.47;;;7.50;84.90
39769;BME280;38939;47.824;14.642;2023-04-26T02:41:33;96649.06;;;7.48;85.15
39769;BME280;38939;47.824;14.642;2023-04-26T02:42:35;96649.28;;;7.53;85.88
39769;BME280;38939;47.824;14.642;2023-04-26T02:43:38;96645.94;;;7.59;86.61
39769;BME280;38939;47.824;14.642;2023-04-26T02:44:39;96646.53;;;7.61;86.26
39769;BME280;38939;47.824;14.642;2023-04-26T02:45:41;96644.94;;;7.60;85.61
39769;BME280;38939;47.824;14.642;2023-04-26T02:46:44;96648.16;;;7.62;86.25
39769;BME280;38939;47.824;14.642;2023-04-26T02:47:45;96643.59;;;7.64;86.15
39769;BME280;38939;47.824;14.642;2023-04-26T02:48:47;96642.41;;;7.67;86.05
39769;BME280;38939;47.824;14.642;2023-04-26T02:49:49;96637.81;;;7.69;86.88
39769;BME280;38939;47.824;14.642;2023-04-26T02:50:53;96642.03;;;7.70;86.10
39769;BME280;38939;47.824;14.642;2023-04-26T02:51:54;96636.22;;;7.68;86.36
39769;BME280;38939;47.824;14.642;2023-04-26T02:52:57;96650.22;;;7.73;86.28
39769;BME280;38939;47.824;14.642;2023-04-26T02:53:59;96652.44;;;7.76;86.19
39769;BME280;38939;47.824;14.642;2023-04-26T02:55:01;96645.03;;;7.73;86.12
39769;BME280;38939;47.824;14.642;2023-04-26T02:56:04;96650.19;;;7.67;85.99
39769;BME280;38939;47.824;14.642;2023-04-26T02:57:06;96655.69;;;7.57;85.86
39769;BME280;38939;47.824;14.642;2023-04-26T02:58:08;96665.03;;;7.51;85.01
39769;BME280;38939;47.824;14.642;2023-04-26T02:59:10;96662.66;;;7.50;85.42
39769;BME280;38939;47.824;14.642;2023-04-26T03:00:12;96666.47;;;7.54;86.37
39769;BME280;38939;47.824;14.642;2023-04-26T03:01:14;96664.63;;;7.48;87.19
39769;BME280;38939;47.824;14.642;2023-04-26T03:02:17;96668.47;;;7.52;87.77
39769;BME280;38939;47.824;14.642;2023-04-26T03:03:19;96664.50;;;7.56;87.22
39769;BME280;38939;47.824;14.642;2023-04-26T03:04:21;96658.72;;;7.60;86.73
39769;BME280;38939;47.824;14.642;2023-04-26T03:05:23;96658.97;;;7.66;87.14
39769;BME280;38939;47.824;14.642;2023-04-26T03:06:26;96662.38;;;7.66;87.45
39769;BME280;38939;47.824;14.642;2023-04-26T03:07:29;96657.38;;;7.65;87.84
39769;BME280;38939;47.824;14.642;2023-04-26T03:08:31;96671.88;;;7.59;87.97
39769;BME280;38939;47.824;14.642;2023-04-26T03:09:35;96667.53;;;7.59;88.37
39769;BME280;38939;47.824;14.642;2023-04-26T03:10:39;96670.00;;;7.46;88.23
39769;BME280;38939;47.824;14.642;2023-04-26T03:11:41;96672.75;;;7.38;87.94
39769;BME280;38939;47.824;14.642;2023-04-26T03:12:43;96672.34;;;7.41;88.98
39769;BME280;38939;47.824;14.642;2023-04-26T03:13:45;96671.19;;;7.44;88.36
39769;BME280;38939;47.824;14.642;2023-04-26T03:14:47;96673.41;;;7.47;88.26
39769;BME280;38939;47.824;14.642;2023-04-26T03:15:49;96675.19;;;7.46;87.93
39769;BME280;38939;47.824;14.642;2023-04-26T03:16:52;96675.38;;;7.45;88.06
39769;BME280;38939;47.824;14.642;2023-04-26T03:17:55;96673.22;;;7.48;87.96
39769;BME280;38939;47.824;14.642;2023-04-26T03:18:58;96678.84;;;7.52;88.51
39769;BME280;38939;47.824;14.642;2023-04-26T03:20:00;96680.00;;;7.49;87.36
39769;BME280;38939;47.824;14.642;2023-04-26T03:21:03;96677.97;;;7.45;87.18
39769;BME280;38939;47.824;14.642;2023-04-26T03:22:05;96685.59;;;7.46;86.33
39769;BME280;38939;47.824;14.642;2023-04-26T03:23:07;96679.22;;;7.49;87.19
39769;BME280;38939;47.824;14.642;2023-04-26T03:24:09;96673.03;;;7.50;86.10
39769;BME280;38939;47.824;14.642;2023-04-26T03:25:12;96682.25;;;7.52;86.14
39769;BME280;38939;47.824;14.642;2023-04-26T03:26:15;96688.84;;;7.55;85.59
39769;BME280;38939;47.824;14.642;2023-04-26T03:27:17;96688.41;;;7.51;85.93
39769;BME280;38939;47.824;14.642;2023-04-26T03:28:19;96692.38;;;7.47;85.16
39769;BME280;38939;47.824;14.642;2023-04-26T03:29:21;96694.34;;;7.45;85.42
39769;BME280;38939;47.824;14.642;2023-04-26T03:30:23;96688.66;;;7.35;85.87
39769;BME280;38939;47.824;14.642;2023-04-26T03:31:26;96693.06;;;7.34;85.78
39769;BME280;38939;47.824;14.642;2023-04-26T03:32:28;96703.41;;;7.28;84.37
39769;BME280;38939;47.824;14.642;2023-04-26T03:33:30;96707.59;;;7.29;85.85
39769;BME280;38939;47.824;14.642;2023-04-26T03:34:32;96704.19;;;7.28;85.08
39769;BME280;38939;47.824;14.642;2023-04-26T03:35:34;96702.22;;;7.30;85.93
39769;BME280;38939;47.824;14.642;2023-04-26T03:36:36;96707.03;;;7.33;85.24
39769;BME280;38939;47.824;14.642;2023-04-26T03:37:38;96703.25;;;7.36;85.12
39769;BME280;38939;47.824;14.642;2023-04-26T03:38:40;96712.66;;;7.37;85.31
39769;BME280;38939;47.824;14.642;2023-04-26T03:39:43;96708.06;;;7.39;84.91
39769;BME280;38939;47.824;14.642;2023-04-26T03:40:45;96708.91;;;7.39;85.26
39769;BME280;38939;47.824;14.642;2023-04-26T03:41:47;96706.91;;;7.41;84.91
39769;BME280;38939;47.824;14.642;2023-04-26T03:42:49;96701.72;;;7.41;84.89
39769;BME280;38939;47.824;14.642;2023-04-26T03:43:51;96699.50;;;7.38;84.94
39769;BME280;38939;47.824;14.642;2023-04-26T03:44:53;96709.06;;;7.38;84.93
39769;BME280;38939;47.824;14.642;2023-04-26T03:45:55;96706.44;;;7.31;85.92
39769;BME280;38939;47.824;14.642;2023-04-26T03:46:57;96710.44;;;7.34;85.13
39769;BME280;38939;47.824;14.642;2023-04-26T03:47:59;96716.25;;;7.36;85.98
39769;BME280;38939;47.824;14.642;2023-04-26T03:49:01;96710.66;;;7.39;85.36
39769;BME280;38939;47.824;14.642;2023-04-26T03:50:03;96715.69;;;7.40;84.99
39769;BME280;38939;47.824;14.642;2023-04-26T03:51:05;96717.47;;;7.40;85.26
39769;BME280;38939;47.824;14.642;2023-04-26T03:52:07;96720.03;;;7.33;85.39
39769;BME280;38939;47.824;14.642;2023-04-26T03:53:09;96714.56;;;7.28;86.18
39769;BME280;38939;47.824;14.642;2023-04-26T03:54:12;96716.09;;;7.22;85.39
39769;BME280;38939;47.824;14.642;2023-04-26T03:55:14;96717.91;;;7.22;85.47
39769;BME280;38939;47.824;14.642;2023-04-26T03:56:16;96713.69;;;7.21;85.78
39769;BME280;38939;47.824;14.642;2023-04-26T03:57:18;96713.91;;;7.19;85.54
39769;BME280;38939;47.824;14.642;2023-04-26T03:58:20;96713.06;;;7.19;85.53
39769;BME280;38939;47.824;14.642;2023-04-26T03:59:21;96710.88;;;7.16;85.63
39769;BME280;38939;47.824;14.642;2023-04-26T04:00:23;96708.72;;;7.19;85.73
39769;BME280;38939;47.824;14.642;2023-04-26T04:01:26;96709.16;;;7.23;85.12
39769;BME280;38939;47.824;14.642;2023-04-26T04:02:28;96703.69;;;7.18;85.49
39769;BME280;38939;47.824;14.642;2023-04-26T04:03:30;96700.09;;;7.19;85.09
39769;BME280;38939;47.824;14.642;2023-04-26T04:04:32;96704.88;;;7.15;85.29
39769;BME280;38939;47.824;14.642;2023-04-26T04:05:35;96697.28;;;7.14;84.57
39769;BME280;38939;47.824;14.642;2023-04-26T04:06:36;96695.53;;;7.21;85.04
39769;BME280;38939;47.824;14.642;2023-04-26T04:07:38;96697.31;;;7.20;85.02
39769;BME280;38939;47.824;14.642;2023-04-26T04:08:40;96700.66;;;7.14;84.96
39769;BME280;38939;47.824;14.642;2023-04-26T04:09:42;96706.41;;;7.10;85.19
39769;BME280;38939;47.824;14.642;2023-04-26T04:10:44;96708.22;;;7.09;85.93
39769;BME280;38939;47.824;14.642;2023-04-26T04:11:46;96710.25;;;7.14;85.56
39769;BME280;38939;47.824;14.642;2023-04-26T04:12:49;96712.44;;;7.17;86.50
39769;BME280;38939;47.824;14.642;2023-04-26T04:13:51;96706.84;;;7.13;85.95
39769;BME280;38939;47.824;14.642;2023-04-26T04:14:53;96713.63;;;7.14;85.95
39769;BME280;38939;47.824;14.642;2023-04-26T04:15:55;96718.19;;;7.12;85.54
39769;BME280;38939;47.824;14.642;2023-04-26T04:16:57;96718.75;;;7.08;85.56
39769;BME280;38939;47.824;14.642;2023-04-26T04:18:00;96726.56;;;7.08;86.03
39769;BME280;38939;47.824;14.642;2023-04-26T04:19:01;96726.00;;;7.12;86.62
39769;BME280;38939;47.824;14.642;2023-04-26T04:20:04;96722.84;;;7.17;85.35
39769;BME280;38939;47.824;14.642;2023-04-26T04:21:08;96725.69;;;7.22;85.16
39769;BME280;38939;47.824;14.642;2023-04-26T04:22:10;96725.34;;;7.25;85.12
39769;BME280;38939;47.824;14.642;2023-04-26T04:23:11;96731.75;;;7.29;85.00
39769;BME280;38939;47.824;14.642;2023-04-26T04:24:13;96732.56;;;7.30;85.32
39769;BME280;38939;47.824;14.642;2023-04-26T04:25:15;96726.13;;;7.26;85.88
39769;BME280;38939;47.824;14.642;2023-04-26T04:26:17;96725.50;;;7.24;85.74
39769;BME280;38939;47.824;14.642;2023-04-26T04:27:19;96719.31;;;7.25;85.54
39769;BME280;38939;47.824;14.642;2023-04-26T04:28:21;96724.94;;;7.28;85.43
39769;BME280;38939;47.824;14.642;2023-04-26T04:29:24;96726.38;;;7.31;84.53
39769;BME280;38939;47.824;14.642;2023-04-26T04:30:26;96732.28;;;7.25;85.19
39769;BME280;38939;47.824;14.642;2023-04-26T04:31:29;96729.69;;;7.25;84.77
39769;BME280;38939;47.824;14.642;2023-04-26T04:32:31;96731.94;;;7.28;84.64
39769;BME280;38939;47.824;14.642;2023-04-26T04:33:34;96729.97;;;7.30;84.13
39769;BME280;38939;47.824;14.642;2023-04-26T04:34:36;96720.31;;;7.24;84.70
39769;BME280;38939;47.824;14.642;2023-04-26T04:35:39;96731.31;;;7.26;84.30
39769;BME280;38939;47.824;14.642;2023-04-26T04:36:41;96731.56;;;7.31;84.85
39769;BME280;38939;47.824;14.642;2023-04-26T04:37:44;96737.00;;;7.36;85.06
39769;BME280;38939;47.824;14.642;2023-04-26T04:38:46;96728.84;;;7.39;84.23
39769;BME280;38939;47.824;14.642;2023-04-26T04:39:48;96736.09;;;7.44;83.73
39769;BME280;38939;47.824;14.642;2023-04-26T04:40:49;96735.53;;;7.48;83.67
39769;BME280;38939;47.824;14.642;2023-04-26T04:41:52;96735.97;;;7.52;83.20
39769;BME280;38939;47.824;14.642;2023-04-26T04:42:54;96725.56;;;7.52;84.00
39769;BME280;38939;47.824;14.642;2023-04-26T04:43:56;96724.56;;;7.53;84.03
39769;BME280;38939;47.824;14.642;2023-04-26T04:44:58;96721.97;;;7.53;85.32
39769;BME280;38939;47.824;14.642;2023-04-26T04:46:00;96722.72;;;7.47;85.49
39769;BME280;38939;47.824;14.642;2023-04-26T04:47:02;96724.69;;;7.45;85.52
39769;BME280;38939;47.824;14.642;2023-04-26T04:48:04;96736.50;;;7.47;85.00
39769;BME280;38939;47.824;14.642;2023-04-26T04:49:06;96730.34;;;7.48;85.38
39769;BME280;38939;47.824;14.642;2023-04-26T04:50:10;96730.50;;;7.47;85.64
39769;BME280;38939;47.824;14.642;2023-04-26T04:51:12;96728.47;;;7.42;85.18
39769;BME280;38939;47.824;14.642;2023-04-26T04:52:13;96736.72;;;7.46;84.84
39769;BME280;38939;47.824;14.642;2023-04-26T04:53:18;96732.13;;;7.48;84.61
39769;BME280;38939;47.824;14.642;2023-04-26T04:54:21;96735.75;;;7.53;84.13
39769;BME280;38939;47.824;14.642;2023-04-26T04:55:22;96734.59;;;7.56;84.77
39769;BME280;38939;47.824;14.642;2023-04-26T04:56:24;96739.59;;;7.57;84.83
39769;BME280;38939;47.824;14.642;2023-04-26T04:57:26;96739.78;;;7.56;85.35
39769;BME280;38939;47.824;14.642;2023-04-26T04:58:28;96744.38;;;7.54;85.88
39769;BME280;38939;47.824;14.642;2023-04-26T04:59:30;96744.09;;;7.49;85.89
39769;BME280;38939;47.824;14.642;2023-04-26T05:00:33;96744.50;;;7.46;86.97
39769;BME280;38939;47.824;14.642;2023-04-26T05:01:35;96741.69;;;7.47;87.06
39769;BME280;38939;47.824;14.642;2023-04-26T05:02:37;96750.09;;;7.49;87.06
39769;BME280;38939;47.824;14.642;2023-04-26T05:03:39;96746.53;;;7.50;86.54
39769;BME280;38939;47.824;14.642;2023-04-26T05:04:42;96747.94;;;7.53;86.63
39769;BME280;38939;47.824;14.642;2023-04-26T05:05:44;96752.59;;;7.57;86.27
39769;BME280;38939;47.824;14.642;2023-04-26T05:06:46;96749.59;;;7.60;85.90
39769;BME280;38939;47.824;14.642;2023-04-26T05:07:48;96751.03;;;7.63;86.03
39769;BME280;38939;47.824;14.642;2023-04-26T05:08:50;96750.66;;;7.66;85.34
39769;BME280;38939;47.824;14.642;2023-04-26T05:09:52;96752.03;;;7.62;86.34
39769;BME280;38939;47.824;14.642;2023-04-26T05:10:54;96747.94;;;7.53;86.63
39769;BME280;38939;47.824;14.642;2023-04-26T05:11:57;96750.34;;;7.54;86.93
39769;BME280;38939;47.824;14.642;2023-04-26T05:12:59;96752.38;;;7.59;86.20
39769;BME280;38939;47.824;14.642;2023-04-26T05:14:01;96752.38;;;7.59;86.56
39769;BME280;38939;47.824;14.642;2023-04-26T05:15:03;96745.22;;;7.61;86.12
39769;BME280;38939;47.824;14.642;2023-04-26T05:16:05;96759.00;;;7.61;86.11
39769;BME280;38939;47.824;14.642;2023-04-26T05:17:07;96749.16;;;7.57;86.51
39769;BME280;38939;47.824;14.642;2023-04-26T05:18:09;96759.19;;;7.60;86.24
39769;BME280;38939;47.824;14.642;2023-04-26T05:19:11;96762.84;;;7.66;86.09
39769;BME280;38939;47.824;14.642;2023-04-26T05:20:14;96760.66;;;7.69;85.27
39769;BME280;38939;47.824;14.642;2023-04-26T05:21:16;96765.50;;;7.72;86.01
39769;BME280;38939;47.824;14.642;2023-04-26T05:22:18;96764.88;;;7.70;85.58
39769;BME280;38939;47.824;14.642;2023-04-26T05:23:22;96759.69;;;7.70;85.44
39769;BME280;38939;47.824;14.642;2023-04-26T05:24:24;96759.50;;;7.72;86.21
39769;BME280;38939;47.824;14.642;2023-04-26T05:25:26;96760.47;;;7.71;86.53
39769;BME280;38939;47.824;14.642;2023-04-26T05:26:28;96759.50;;;7.72;86.77
39769;BME280;38939;47.824;14.642;2023-04-26T05:27:30;96765.84;;;7.69;86.56
39769;BME280;38939;47.824;14.642;2023-04-26T05:28:32;96766.25;;;7.66;87.19
39769;BME280;38939;47.824;14.642;2023-04-26T05:29:34;96773.22;;;7.66;86.87